Adamsville, Ohio
Current Conditions -  °F | °C
As of 2:53 PM on Saturday 25 Oct 2014 (Local Time) from KZZV Reporting Station
Broken Clouds Broken Clouds  
Wind Chill: 66°   Ceiling: 3200
Heat Index: 66°   Visibility: 10mi
Dew Point: 52°   Wind: 14mph
Humidity: 60%   Direction: 250°WSW
Pressure: 29.85"   Gusts: 21mph
Location:  40.07°N, 81.88°W
Report Text: KZZV 251853Z AUTO 25012G18KT 10SM BKN032 19/11 A2985 RMK AO2 SLP107 T01890111
Loading
Personal Weather Stations






























Interactive Weather Map New forecast layout! Learn more

10-Day Weather Forecast

Advertisements
Track Severe Weather on mobile